sensor_id;sensor_type;location;lat;lon;timestamp;pressure;altitude;pressure_sealevel;temperature
63297;BMP280;49419;51.716;-4.948;2022-09-29T01:39:49;99964.19;;;13.35
63297;BMP280;49419;51.716;-4.948;2022-09-29T01:46:37;99949.44;;;13.25
63297;BMP280;49419;51.716;-4.948;2022-09-29T01:50:10;99944.28;;;13.25
63297;BMP280;49419;51.716;-4.948;2022-09-29T01:53:16;99959.78;;;13.28
63297;BMP280;49419;51.716;-4.948;2022-09-29T01:57:07;99958.09;;;13.30
63297;BMP280;49419;51.716;-4.948;2022-09-29T02:00:03;99959.81;;;13.31
63297;BMP280;49419;51.716;-4.948;2022-09-29T02:07:07;99957.28;;;13.32
63297;BMP280;49419;51.716;-4.948;2022-09-29T02:16:20;99952.16;;;13.35
63297;BMP280;49419;51.716;-4.948;2022-09-29T02:19:56;99938.38;;;13.32
63297;BMP280;49419;51.716;-4.948;2022-09-29T02:32:17;99947.16;;;13.44
63297;BMP280;49419;51.716;-4.948;2022-09-29T03:39:56;99944.94;;;13.71
63297;BMP280;49419;51.716;-4.948;2022-09-29T03:43:02;99955.34;;;13.78
63297;BMP280;49419;51.716;-4.948;2022-09-29T03:45:53;99946.69;;;13.73
63297;BMP280;49419;51.716;-4.948;2022-09-29T03:48:42;99945.78;;;13.70
63297;BMP280;49419;51.716;-4.948;2022-09-29T03:51:31;99961.34;;;13.74
63297;BMP280;49419;51.716;-4.948;2022-09-29T03:57:30;99949.25;;;13.73
63297;BMP280;49419;51.716;-4.948;2022-09-29T04:00:23;99938.94;;;13.73
63297;BMP280;49419;51.716;-4.948;2022-09-29T04:03:14;99943.34;;;13.80
63297;BMP280;49419;51.716;-4.948;2022-09-29T04:09:26;99938.13;;;13.76
63297;BMP280;49419;51.716;-4.948;2022-09-29T04:14:52;99939.91;;;13.81
63297;BMP280;49419;51.716;-4.948;2022-09-29T04:17:48;99956.34;;;13.89
63297;BMP280;49419;51.716;-4.948;2022-09-29T04:21:03;99960.69;;;13.91
63297;BMP280;49419;51.716;-4.948;2022-09-29T04:24:20;99961.56;;;13.95
63297;BMP280;49419;51.716;-4.948;2022-09-29T04:27:11;99965.03;;;13.95
63297;BMP280;49419;51.716;-4.948;2022-09-29T04:30:18;99969.38;;;13.98
63297;BMP280;49419;51.716;-4.948;2022-09-29T04:32:56;99962.41;;;13.92
63297;BMP280;49419;51.716;-4.948;2022-09-29T04:39:03;99962.47;;;13.97
63297;BMP280;49419;51.716;-4.948;2022-09-29T04:41:46;99952.94;;;13.93
63297;BMP280;49419;51.716;-4.948;2022-09-29T04:47:06;99953.84;;;13.95
63297;BMP280;49419;51.716;-4.948;2022-09-29T04:50:12;99945.25;;;13.94
63297;BMP280;49419;51.716;-4.948;2022-09-29T04:52:52;99962.53;;;14.00
63297;BMP280;49419;51.716;-4.948;2022-09-29T04:56:06;99956.44;;;13.96
63297;BMP280;49419;51.716;-4.948;2022-09-29T04:58:57;99973.75;;;14.02
63297;BMP280;49419;51.716;-4.948;2022-09-29T05:02:22;99966.81;;;13.98
63297;BMP280;49419;51.716;-4.948;2022-09-29T05:05:05;99974.53;;;13.98
63297;BMP280;49419;51.716;-4.948;2022-09-29T05:08:07;99985.81;;;14.03
63297;BMP280;49419;51.716;-4.948;2022-09-29T05:13:47;99975.38;;;13.97
63297;BMP280;49419;51.716;-4.948;2022-09-29T05:16:57;99989.13;;;13.96
63297;BMP280;49419;51.716;-4.948;2022-09-29T05:20:04;99986.47;;;13.93
63297;BMP280;49419;51.716;-4.948;2022-09-29T05:23:23;99986.50;;;13.94
63297;BMP280;49419;51.716;-4.948;2022-09-29T05:26:12;99986.47;;;13.93
63297;BMP280;49419;51.716;-4.948;2022-09-29T05:29:09;100002.09;;;13.99
63297;BMP280;49419;51.716;-4.948;2022-09-29T05:35:27;99995.13;;;13.95
63297;BMP280;49419;51.716;-4.948;2022-09-29T05:44:58;100000.38;;;13.99
63297;BMP280;49419;51.716;-4.948;2022-09-29T05:48:09;99995.94;;;13.92
63297;BMP280;49419;51.716;-4.948;2022-09-29T05:54:11;100003.88;;;14.03
63297;BMP280;49419;51.716;-4.948;2022-09-29T05:57:20;99995.25;;;14.01
63297;BMP280;49419;51.716;-4.948;2022-09-29T05:59:49;100003.88;;;14.03
63297;BMP280;49419;51.716;-4.948;2022-09-29T06:03:05;100001.25;;;14.01
63297;BMP280;49419;51.716;-4.948;2022-09-29T06:05:49;100022.00;;;14.09
63297;BMP280;49419;51.716;-4.948;2022-09-29T06:08:42;100009.91;;;14.06
63297;BMP280;49419;51.716;-4.948;2022-09-29T06:11:46;100021.19;;;14.13
63297;BMP280;49419;51.716;-4.948;2022-09-29T06:14:44;100019.41;;;14.09
63297;BMP280;49419;51.716;-4.948;2022-09-29T06:20:32;100031.53;;;14.15
63297;BMP280;49419;51.716;-4.948;2022-09-29T06:23:10;100031.56;;;14.18
63297;BMP280;49419;51.716;-4.948;2022-09-29T06:28:57;100053.91;;;14.16
63297;BMP280;49419;51.716;-4.948;2022-09-29T06:35:20;100050.44;;;14.14
63297;BMP280;49419;51.716;-4.948;2022-09-29T06:41:14;100062.53;;;14.17
63297;BMP280;49419;51.716;-4.948;2022-09-29T06:44:27;100060.81;;;14.17
63297;BMP280;49419;51.716;-4.948;2022-09-29T06:50:35;100071.19;;;14.20
63297;BMP280;49419;51.716;-4.948;2022-09-29T06:53:28;100072.13;;;14.27
63297;BMP280;49419;51.716;-4.948;2022-09-29T06:56:48;100077.31;;;14.30
63297;BMP280;49419;51.716;-4.948;2022-09-29T06:59:15;100076.47;;;14.29
63297;BMP280;49419;51.716;-4.948;2022-09-29T07:02:19;100081.72;;;14.38
63297;BMP280;49419;51.716;-4.948;2022-09-29T07:05:29;100071.41;;;14.37
63297;BMP280;49419;51.716;-4.948;2022-09-29T07:08:23;100088.75;;;14.48
63297;BMP280;49419;51.716;-4.948;2022-09-29T07:22:05;100098.44;;;14.68
63297;BMP280;49419;51.716;-4.948;2022-09-29T07:25:06;100099.41;;;14.78
63297;BMP280;49419;51.716;-4.948;2022-09-29T07:28:03;100109.03;;;14.89
63297;BMP280;49419;51.716;-4.948;2022-09-29T07:30:32;100118.56;;;14.97
63297;BMP280;49419;51.716;-4.948;2022-09-29T07:33:19;100123.84;;;15.06
63297;BMP280;49419;51.716;-4.948;2022-09-29T07:36:40;100110.06;;;15.07
63297;BMP280;49419;51.716;-4.948;2022-09-29T07:39:34;100110.94;;;15.08
63297;BMP280;49419;51.716;-4.948;2022-09-29T07:42:48;100130.88;;;15.16
63297;BMP280;49419;51.716;-4.948;2022-09-29T07:45:52;100124.00;;;15.15
63297;BMP280;49419;51.716;-4.948;2022-09-29T07:54:43;100142.97;;;15.18
63297;BMP280;49419;51.716;-4.948;2022-09-29T07:57:17;100134.31;;;15.15
63297;BMP280;49419;51.716;-4.948;2022-09-29T07:59:48;100148.06;;;15.14
63297;BMP280;49419;51.716;-4.948;2022-09-29T08:02:23;100151.56;;;15.16
63297;BMP280;49419;51.716;-4.948;2022-09-29T08:05:29;100149.84;;;15.15
63297;BMP280;49419;51.716;-4.948;2022-09-29T08:07:59;100161.16;;;15.29
63297;BMP280;49419;51.716;-4.948;2022-09-29T08:10:32;100150.84;;;15.30
63297;BMP280;49419;51.716;-4.948;2022-09-29T08:13:04;100150.00;;;15.33
63297;BMP280;49419;51.716;-4.948;2022-09-29T08:15:35;100168.13;;;15.39
63297;BMP280;49419;51.716;-4.948;2022-09-29T08:18:16;100155.22;;;15.39
63297;BMP280;49419;51.716;-4.948;2022-09-29T08:21:04;100175.09;;;15.45
63297;BMP280;49419;51.716;-4.948;2022-09-29T08:23:39;100177.69;;;15.45
63297;BMP280;49419;51.716;-4.948;2022-09-29T08:26:24;100178.59;;;15.46
63297;BMP280;49419;51.716;-4.948;2022-09-29T08:28:54;100188.94;;;15.50
63297;BMP280;49419;51.716;-4.948;2022-09-29T08:31:46;100195.03;;;15.55
63297;BMP280;49419;51.716;-4.948;2022-09-29T08:34:21;100187.31;;;15.58
63297;BMP280;49419;51.716;-4.948;2022-09-29T08:37:25;100192.50;;;15.58
63297;BMP280;49419;51.716;-4.948;2022-09-29T08:39:52;100183.88;;;15.61
63297;BMP280;49419;51.716;-4.948;2022-09-29T08:45:56;100215.06;;;15.76
63297;BMP280;49419;51.716;-4.948;2022-09-29T08:48:51;100203.81;;;15.72
63297;BMP280;49419;51.716;-4.948;2022-09-29T08:51:47;100224.59;;;15.81
63297;BMP280;49419;51.716;-4.948;2022-09-29T08:54:45;100212.53;;;15.80
63297;BMP280;49419;51.716;-4.948;2022-09-29T08:57:28;100212.56;;;15.86
63297;BMP280;49419;51.716;-4.948;2022-09-29T09:00:08;100221.22;;;15.88
63297;BMP280;49419;51.716;-4.948;2022-09-29T09:18:55;100231.97;;;16.32
63297;BMP280;49419;51.716;-4.948;2022-09-29T09:24:58;100244.91;;;16.37
63297;BMP280;49419;51.716;-4.948;2022-09-29T09:27:55;100257.06;;;16.43
63297;BMP280;49419;51.716;-4.948;2022-09-29T09:31:22;100251.91;;;16.45
63297;BMP280;49419;51.716;-4.948;2022-09-29T09:35:00;100256.19;;;16.43
63297;BMP280;49419;51.716;-4.948;2022-09-29T09:49:55;100216.44;;;16.32
63297;BMP280;49419;51.716;-4.948;2022-09-29T09:52:55;100241.53;;;16.42
63297;BMP280;49419;51.716;-4.948;2022-09-29T09:55:37;100232.91;;;16.46
63297;BMP280;49419;51.716;-4.948;2022-09-29T10:13:37;100250.53;;;17.07
63297;BMP280;49419;51.716;-4.948;2022-09-29T10:19:00;100242.00;;;17.34
63297;BMP280;49419;51.716;-4.948;2022-09-29T10:28:23;100258.44;;;17.36
63297;BMP280;49419;51.716;-4.948;2022-09-29T10:31:29;100265.34;;;17.31
63297;BMP280;49419;51.716;-4.948;2022-09-29T10:40:25;100263.66;;;17.44
63297;BMP280;49419;51.716;-4.948;2022-09-29T10:42:57;100256.69;;;17.32
63297;BMP280;49419;51.716;-4.948;2022-09-29T10:45:57;100266.13;;;17.18
63297;BMP280;49419;51.716;-4.948;2022-09-29T10:51:59;100272.13;;;17.06
63297;BMP280;49419;51.716;-4.948;2022-09-29T10:57:28;100267.75;;;16.97
63297;BMP280;49419;51.716;-4.948;2022-09-29T11:00:32;100278.09;;;16.92
63297;BMP280;49419;51.716;-4.948;2022-09-29T11:03:13;100281.56;;;16.94
63297;BMP280;49419;51.716;-4.948;2022-09-29T11:06:05;100282.56;;;17.14
63297;BMP280;49419;51.716;-4.948;2022-09-29T11:11:53;100296.38;;;17.13
63297;BMP280;49419;51.716;-4.948;2022-09-29T11:14:45;100280.78;;;17.10
63297;BMP280;49419;51.716;-4.948;2022-09-29T11:32:45;100324.28;;;17.76
63297;BMP280;49419;51.716;-4.948;2022-09-29T11:45:04;100335.56;;;17.94
63297;BMP280;49419;51.716;-4.948;2022-09-29T11:54:29;100342.50;;;17.97
63297;BMP280;49419;51.716;-4.948;2022-09-29T12:12:49;100366.00;;;18.54
63297;BMP280;49419;51.716;-4.948;2022-09-29T12:15:58;100356.47;;;18.47
63297;BMP280;49419;51.716;-4.948;2022-09-29T12:19:15;100369.44;;;18.55
63297;BMP280;49419;51.716;-4.948;2022-09-29T12:22:14;100367.72;;;18.51
63297;BMP280;49419;51.716;-4.948;2022-09-29T12:25:03;100365.09;;;18.36
63297;BMP280;49419;51.716;-4.948;2022-09-29T12:28:17;100380.69;;;18.33
63297;BMP280;49419;51.716;-4.948;2022-09-29T12:31:15;100368.56;;;18.22
63297;BMP280;49419;51.716;-4.948;2022-09-29T12:34:12;100391.94;;;18.22
63297;BMP280;49419;51.716;-4.948;2022-09-29T12:40:25;100381.59;;;18.50
63297;BMP280;49419;51.716;-4.948;2022-09-29T12:46:19;100378.13;;;18.71
63297;BMP280;49419;51.716;-4.948;2022-09-29T12:51:52;100385.91;;;18.79
63297;BMP280;49419;51.716;-4.948;2022-09-29T12:57:19;100376.38;;;19.07
63297;BMP280;49419;51.716;-4.948;2022-09-29T13:00:02;100379.81;;;19.14
63297;BMP280;49419;51.716;-4.948;2022-09-29T13:03:07;100375.47;;;19.20
63297;BMP280;49419;51.716;-4.948;2022-09-29T13:11:58;100377.25;;;18.99
63297;BMP280;49419;51.716;-4.948;2022-09-29T13:18:25;100376.38;;;18.94
63297;BMP280;49419;51.716;-4.948;2022-09-29T13:27:42;100376.38;;;19.00
63297;BMP280;49419;51.716;-4.948;2022-09-29T13:31:08;100383.31;;;18.98
63297;BMP280;49419;51.716;-4.948;2022-09-29T13:33:51;100392.81;;;18.89
63297;BMP280;49419;51.716;-4.948;2022-09-29T13:36:52;100390.22;;;18.72
63297;BMP280;49419;51.716;-4.948;2022-09-29T13:43:35;100398.03;;;18.90
63297;BMP280;49419;51.716;-4.948;2022-09-29T13:55:46;100416.22;;;19.15
63297;BMP280;49419;51.716;-4.948;2022-09-29T14:01:40;100410.16;;;19.27
63297;BMP280;49419;51.716;-4.948;2022-09-29T14:07:36;100423.16;;;19.21
63297;BMP280;49419;51.716;-4.948;2022-09-29T14:13:39;100426.63;;;19.21
63297;BMP280;49419;51.716;-4.948;2022-09-29T14:23:04;100438.75;;;19.09
63297;BMP280;49419;51.716;-4.948;2022-09-29T14:31:19;100428.31;;;19.46
63297;BMP280;49419;51.716;-4.948;2022-09-29T14:34:31;100430.81;;;19.78
63297;BMP280;49419;51.716;-4.948;2022-09-29T14:37:17;100435.09;;;19.96
63297;BMP280;49419;51.716;-4.948;2022-09-29T14:39:56;100428.13;;;20.03
63297;BMP280;49419;51.716;-4.948;2022-09-29T14:43:07;100428.91;;;20.17
63297;BMP280;49419;51.716;-4.948;2022-09-29T15:02:28;100442.22;;;19.40
63297;BMP280;49419;51.716;-4.948;2022-09-29T15:12:39;100470.84;;;19.18
63297;BMP280;49419;51.716;-4.948;2022-09-29T15:19:11;100463.91;;;19.33
63297;BMP280;49419;51.716;-4.948;2022-09-29T15:27:59;100489.00;;;19.60
63297;BMP280;49419;51.716;-4.948;2022-09-29T15:31:09;100489.88;;;19.57
63297;BMP280;49419;51.716;-4.948;2022-09-29T15:33:55;100497.69;;;19.50
63297;BMP280;49419;51.716;-4.948;2022-09-29T15:36:59;100489.00;;;19.63
63297;BMP280;49419;51.716;-4.948;2022-09-29T15:42:28;100497.44;;;20.28
63297;BMP280;49419;51.716;-4.948;2022-09-29T15:48:10;100496.56;;;20.32
63297;BMP280;49419;51.716;-4.948;2022-09-29T15:50:44;100498.38;;;20.14
63297;BMP280;49419;51.716;-4.948;2022-09-29T15:53:12;100506.31;;;19.86
63297;BMP280;49419;51.716;-4.948;2022-09-29T15:55:39;100534.13;;;19.57
63297;BMP280;49419;51.716;-4.948;2022-09-29T15:58:36;100548.03;;;19.27
63297;BMP280;49419;51.716;-4.948;2022-09-29T16:01:37;100546.25;;;18.99
63297;BMP280;49419;51.716;-4.948;2022-09-29T16:04:25;100533.19;;;18.72
63297;BMP280;49419;51.716;-4.948;2022-09-29T16:06:59;100542.69;;;18.60
63297;BMP280;49419;51.716;-4.948;2022-09-29T16:09:58;100542.66;;;18.45
63297;BMP280;49419;51.716;-4.948;2022-09-29T16:12:56;100560.81;;;18.38
63297;BMP280;49419;51.716;-4.948;2022-09-29T16:15:56;100554.72;;;18.29
63297;BMP280;49419;51.716;-4.948;2022-09-29T16:18:47;100563.38;;;18.23
63297;BMP280;49419;51.716;-4.948;2022-09-29T16:21:36;100566.75;;;18.13
63297;BMP280;49419;51.716;-4.948;2022-09-29T16:24:13;100570.22;;;18.06
63297;BMP280;49419;51.716;-4.948;2022-09-29T16:26:53;100561.44;;;17.99
63297;BMP280;49419;51.716;-4.948;2022-09-29T16:30:02;100571.00;;;18.00
63297;BMP280;49419;51.716;-4.948;2022-09-29T16:33:11;100585.66;;;17.93
63297;BMP280;49419;51.716;-4.948;2022-09-29T16:36:38;100575.22;;;17.87
63297;BMP280;49419;51.716;-4.948;2022-09-29T16:38:59;100570.00;;;17.80
63297;BMP280;49419;51.716;-4.948;2022-09-29T16:41:35;100583.81;;;17.74
63297;BMP280;49419;51.716;-4.948;2022-09-29T16:47:49;100594.13;;;17.67
63297;BMP280;49419;51.716;-4.948;2022-09-29T16:50:22;100598.41;;;17.61
63297;BMP280;49419;51.716;-4.948;2022-09-29T16:52:49;100590.59;;;17.58
63297;BMP280;49419;51.716;-4.948;2022-09-29T16:55:33;100597.53;;;17.57
63297;BMP280;49419;51.716;-4.948;2022-09-29T16:58:37;100592.25;;;17.48
63297;BMP280;49419;51.716;-4.948;2022-09-29T17:01:12;100596.59;;;17.48
63297;BMP280;49419;51.716;-4.948;2022-09-29T17:03:39;100590.47;;;17.40
63297;BMP280;49419;51.716;-4.948;2022-09-29T17:09:39;100593.00;;;17.31
63297;BMP280;49419;51.716;-4.948;2022-09-29T17:12:29;100586.91;;;17.28
63297;BMP280;49419;51.716;-4.948;2022-09-29T17:15:03;100591.16;;;17.18
63297;BMP280;49419;51.716;-4.948;2022-09-29T17:17:55;100604.09;;;17.17
63297;BMP280;49419;51.716;-4.948;2022-09-29T17:20:30;100607.50;;;17.13
63297;BMP280;49419;51.716;-4.948;2022-09-29T17:23:40;100610.03;;;17.10
63297;BMP280;49419;51.716;-4.948;2022-09-29T17:26:48;100612.59;;;17.04
63297;BMP280;49419;51.716;-4.948;2022-09-29T17:29:43;100610.75;;;16.94
63297;BMP280;49419;51.716;-4.948;2022-09-29T17:43:11;100634.69;;;16.73
63297;BMP280;49419;51.716;-4.948;2022-09-29T17:46:09;100651.97;;;16.71
63297;BMP280;49419;51.716;-4.948;2022-09-29T17:49:02;100648.44;;;16.66
63297;BMP280;49419;51.716;-4.948;2022-09-29T17:51:48;100638.84;;;16.59
63297;BMP280;49419;51.716;-4.948;2022-09-29T17:54:19;100630.13;;;16.52
63297;BMP280;49419;51.716;-4.948;2022-09-29T17:57:24;100646.47;;;16.47
63297;BMP280;49419;51.716;-4.948;2022-09-29T18:00:02;100641.28;;;16.47
63297;BMP280;49419;51.716;-4.948;2022-09-29T18:02:52;100625.63;;;16.38
63297;BMP280;49419;51.716;-4.948;2022-09-29T18:05:46;100639.34;;;16.31
63297;BMP280;49419;51.716;-4.948;2022-09-29T18:08:20;100634.09;;;16.25
63297;BMP280;49419;51.716;-4.948;2022-09-29T18:10:59;100634.03;;;16.22
63297;BMP280;49419;51.716;-4.948;2022-09-29T18:13:45;100628.78;;;16.16
63297;BMP280;49419;51.716;-4.948;2022-09-29T18:16:24;100627.06;;;16.15
63297;BMP280;49419;51.716;-4.948;2022-09-29T18:19:43;100610.53;;;16.09
63297;BMP280;49419;51.716;-4.948;2022-09-29T18:22:30;100608.75;;;16.04
63297;BMP280;49419;51.716;-4.948;2022-09-29T18:25:33;100615.59;;;16.02
63297;BMP280;49419;51.716;-4.948;2022-09-29T18:28:18;100626.78;;;16.01
63297;BMP280;49419;51.716;-4.948;2022-09-29T18:33:52;100638.72;;;15.90
63297;BMP280;49419;51.716;-4.948;2022-09-29T18:36:30;100632.56;;;15.82
63297;BMP280;49419;51.716;-4.948;2022-09-29T18:39:05;100643.75;;;15.81
63297;BMP280;49419;51.716;-4.948;2022-09-29T18:41:33;100652.31;;;15.77
63297;BMP280;49419;51.716;-4.948;2022-09-29T18:44:21;100661.00;;;15.80
63297;BMP280;49419;51.716;-4.948;2022-09-29T18:46:54;100663.50;;;15.76
63297;BMP280;49419;51.716;-4.948;2022-09-29T18:49:57;100663.44;;;15.70
63297;BMP280;49419;51.716;-4.948;2022-09-29T18:52:50;100655.50;;;15.61
63297;BMP280;49419;51.716;-4.948;2022-09-29T18:55:39;100668.41;;;15.58
63297;BMP280;49419;51.716;-4.948;2022-09-29T18:58:24;100676.91;;;15.51
63297;BMP280;49419;51.716;-4.948;2022-09-29T19:01:13;100695.06;;;15.54
63297;BMP280;49419;51.716;-4.948;2022-09-29T19:04:19;100697.50;;;15.47
63297;BMP280;49419;51.716;-4.948;2022-09-29T19:07:11;100699.19;;;15.45
63297;BMP280;49419;51.716;-4.948;2022-09-29T19:10:15;100696.66;;;15.46
63297;BMP280;49419;51.716;-4.948;2022-09-29T19:13:21;100709.47;;;15.41
63297;BMP280;49419;51.716;-4.948;2022-09-29T19:16:15;100730.19;;;15.43
63297;BMP280;49419;51.716;-4.948;2022-09-29T19:19:06;100717.13;;;15.35
63297;BMP280;49419;51.716;-4.948;2022-09-29T19:21:34;100731.00;;;15.40
63297;BMP280;49419;51.716;-4.948;2022-09-29T19:24:27;100720.53;;;15.34
63297;BMP280;49419;51.716;-4.948;2022-09-29T19:27:45;100726.56;;;15.33
63297;BMP280;49419;51.716;-4.948;2022-09-29T19:30:41;100746.47;;;15.37
63297;BMP280;49419;51.716;-4.948;2022-09-29T19:33:57;100748.97;;;15.34
63297;BMP280;49419;51.716;-4.948;2022-09-29T19:36:50;100746.38;;;15.34
63297;BMP280;49419;51.716;-4.948;2022-09-29T19:40:08;100748.16;;;15.35
63297;BMP280;49419;51.716;-4.948;2022-09-29T19:42:55;100754.94;;;15.30
63297;BMP280;49419;51.716;-4.948;2022-09-29T20:28:53;100784.78;;;14.77
63297;BMP280;49419;51.716;-4.948;2022-09-29T20:32:13;100778.66;;;14.70
63297;BMP280;49419;51.716;-4.948;2022-09-29T20:35:24;100769.78;;;14.59
63297;BMP280;49419;51.716;-4.948;2022-09-29T20:38:10;100772.34;;;14.58
63297;BMP280;49419;51.716;-4.948;2022-09-29T20:41:06;100780.97;;;14.58
63297;BMP280;49419;51.716;-4.948;2022-09-29T20:44:07;100778.38;;;14.58
63297;BMP280;49419;51.716;-4.948;2022-09-29T20:49:27;100782.75;;;14.62
63297;BMP280;49419;51.716;-4.948;2022-09-29T20:55:13;100779.25;;;14.59
63297;BMP280;49419;51.716;-4.948;2022-09-29T20:58:10;100799.22;;;14.66
63297;BMP280;49419;51.716;-4.948;2022-09-29T21:00:42;100787.16;;;14.66
63297;BMP280;49419;51.716;-4.948;2022-09-29T21:03:18;100791.47;;;14.66
63297;BMP280;49419;51.716;-4.948;2022-09-29T21:12:12;100787.91;;;14.62
63297;BMP280;49419;51.716;-4.948;2022-09-29T21:14:45;100782.75;;;14.61
63297;BMP280;49419;51.716;-4.948;2022-09-29T21:17:57;100781.81;;;14.59
63297;BMP280;49419;51.716;-4.948;2022-09-29T21:20:59;100783.66;;;14.63
63297;BMP280;49419;51.716;-4.948;2022-09-29T21:23:38;100771.44;;;14.56
63297;BMP280;49419;51.716;-4.948;2022-09-29T21:26:37;100779.25;;;14.59
63297;BMP280;49419;51.716;-4.948;2022-09-29T21:29:50;100770.59;;;14.57
63297;BMP280;49419;51.716;-4.948;2022-09-29T21:33:01;100768.06;;;14.58
63297;BMP280;49419;51.716;-4.948;2022-09-29T21:36:28;100752.34;;;14.49
63297;BMP280;49419;51.716;-4.948;2022-09-29T21:39:04;100757.44;;;14.47
63297;BMP280;49419;51.716;-4.948;2022-09-29T21:41:56;100756.53;;;14.45
63297;BMP280;49419;51.716;-4.948;2022-09-29T21:54:42;100757.91;;;14.29
63297;BMP280;49419;51.716;-4.948;2022-09-29T21:57:14;100751.78;;;14.26
63297;BMP280;49419;51.716;-4.948;2022-09-29T22:02:45;100762.97;;;14.26
63297;BMP280;49419;51.716;-4.948;2022-09-29T22:05:43;100753.56;;;14.27
63297;BMP280;49419;51.716;-4.948;2022-09-29T22:08:39;100751.72;;;14.23
63297;BMP280;49419;51.716;-4.948;2022-09-29T22:11:33;100740.53;;;14.22
63297;BMP280;49419;51.716;-4.948;2022-09-29T22:14:03;100735.44;;;14.25
63297;BMP280;49419;51.716;-4.948;2022-09-29T22:17:19;100752.75;;;14.29
63297;BMP280;49419;51.716;-4.948;2022-09-29T22:23:58;100726.66;;;14.19
63297;BMP280;49419;51.716;-4.948;2022-09-29T22:31:59;100704.25;;;14.16
63297;BMP280;49419;51.716;-4.948;2022-09-29T22:38:03;100706.66;;;14.09
63297;BMP280;49419;51.716;-4.948;2022-09-29T22:41:23;100707.34;;;14.01
63297;BMP280;49419;51.716;-4.948;2022-09-29T22:44:34;100708.13;;;13.98
63297;BMP280;49419;51.716;-4.948;2022-09-29T22:47:42;100724.22;;;13.90
63297;BMP280;49419;51.716;-4.948;2022-09-29T22:50:09;100706.72;;;13.77
63297;BMP280;49419;51.716;-4.948;2022-09-29T22:52:53;100713.66;;;13.81
63297;BMP280;49419;51.716;-4.948;2022-09-29T22:58:35;100713.53;;;13.75
